1°C Temp
0°C Dewpoint
93% Humidity
Temperature
21 KM/H
13 MPH
11 KTS
110°
East South
East

Wind Speed
Overcast
Conditions
Pressure 1019.92 (hPa) - 30.12 (in)
Visibility 6.2 (mi) - 10.0 (km)

Current Conditions
EPRZ
Location 9(km)
Metar :EPRZ 051730Z 11011KT 9999 OVC016 01/M00 Q1020
Mon 5th December 20:30 pm

Airport